createdAt,value
2023-05-20T00:00:35.377Z,9.09
2023-05-20T00:03:02.056Z,9.09
2023-05-20T00:05:28.603Z,9.09
2023-05-20T00:07:55.179Z,9.08
2023-05-20T00:10:21.735Z,9.07
2023-05-20T00:12:48.252Z,9.07
2023-05-20T00:15:14.770Z,9.05
2023-05-20T00:17:41.294Z,9.04
2023-05-20T00:20:08.492Z,9.03
2023-05-20T00:22:35.010Z,9.00
2023-05-20T00:25:01.523Z,9.04
2023-05-20T00:27:28.018Z,9.02
2023-05-20T00:29:54.556Z,9.00
2023-05-20T00:32:21.161Z,9.01
2023-05-20T00:34:57.253Z,8.99
2023-05-20T00:37:24.090Z,9.01
2023-05-20T00:39:50.609Z,8.98
2023-05-20T00:42:23.948Z,9.00
2023-05-20T00:44:50.511Z,9.00
2023-05-20T00:47:17.841Z,8.96
2023-05-20T00:49:46.920Z,8.97
2023-05-20T00:52:14.819Z,8.93
2023-05-20T00:54:41.714Z,8.91
2023-05-20T00:57:08.408Z,8.83
2023-05-20T00:59:36.420Z,8.78
2023-05-20T01:02:03.561Z,8.72
2023-05-20T01:04:30.806Z,8.69
2023-05-20T01:06:57.840Z,8.67
2023-05-20T01:09:25.002Z,8.65
2023-05-20T01:12:04.521Z,8.68
2023-05-20T01:14:33.338Z,8.71
2023-05-20T01:16:59.843Z,8.67
2023-05-20T01:19:35.594Z,8.66
2023-05-20T01:22:07.065Z,8.66
2023-05-20T01:24:33.675Z,8.70
2023-05-20T01:27:00.182Z,8.71
2023-05-20T01:29:26.680Z,8.73
2023-05-20T01:31:53.909Z,8.70
2023-05-20T01:34:20.644Z,8.68
2023-05-20T01:36:47.284Z,8.70
2023-05-20T01:39:13.943Z,8.70
2023-05-20T01:41:40.918Z,8.71
2023-05-20T01:44:07.452Z,8.69
2023-05-20T01:46:34.505Z,8.67
2023-05-20T01:49:01.074Z,8.67
2023-05-20T01:51:27.905Z,8.66
2023-05-20T01:53:54.478Z,8.66
2023-05-20T01:56:22.103Z,8.71
2023-05-20T01:58:48.619Z,8.70
2023-05-20T02:01:15.176Z,8.67
2023-05-20T02:03:41.692Z,8.69
2023-05-20T02:06:08.259Z,8.66
2023-05-20T02:08:34.755Z,8.62
2023-05-20T02:11:01.352Z,8.60
2023-05-20T02:13:27.866Z,8.59
2023-05-20T02:15:54.406Z,8.60
2023-05-20T02:18:20.915Z,8.61
2023-05-20T02:20:47.503Z,8.61
2023-05-20T02:23:14.042Z,8.57
2023-05-20T02:25:41.018Z,8.54
2023-05-20T02:28:10.609Z,8.46
2023-05-20T02:30:38.461Z,8.46
2023-05-20T02:33:05.055Z,8.44
2023-05-20T02:35:31.822Z,8.40
2023-05-20T02:37:58.407Z,8.37
2023-05-20T02:40:24.926Z,8.32
2023-05-20T02:42:51.469Z,8.23
2023-05-20T02:45:18.013Z,8.19
2023-05-20T02:47:44.600Z,8.18
2023-05-20T02:50:11.271Z,8.18
2023-05-20T02:52:37.828Z,8.18
2023-05-20T02:55:04.755Z,8.19
2023-05-20T02:57:32.249Z,8.16
2023-05-20T02:59:58.746Z,8.17
2023-05-20T03:02:25.320Z,8.21
2023-05-20T03:04:54.842Z,8.21
2023-05-20T03:07:22.369Z,8.23
2023-05-20T03:09:48.886Z,8.25
2023-05-20T03:12:15.682Z,8.28
2023-05-20T03:14:42.224Z,8.33
2023-05-20T03:17:09.518Z,8.38
2023-05-20T03:19:36.047Z,8.39
2023-05-20T03:22:02.606Z,8.41
2023-05-20T03:24:29.213Z,8.43
2023-05-20T03:26:56.021Z,8.42
2023-05-20T03:29:23.481Z,8.41
2023-05-20T03:31:50.038Z,8.41
2023-05-20T03:34:16.751Z,8.42
2023-05-20T03:36:43.279Z,8.39
2023-05-20T03:39:09.830Z,8.41
2023-05-20T03:41:37.917Z,8.42
2023-05-20T03:44:04.591Z,8.42
2023-05-20T03:46:32.563Z,8.42
2023-05-20T03:48:59.177Z,8.42
2023-05-20T03:51:25.867Z,8.41
2023-05-20T03:53:52.346Z,8.42
2023-05-20T03:56:18.853Z,8.42
2023-05-20T03:58:45.390Z,8.37
2023-05-20T04:01:15.254Z,8.33
2023-05-20T04:03:42.574Z,8.33
2023-05-20T04:06:09.204Z,8.35
2023-05-20T04:08:38.266Z,8.35
2023-05-20T04:11:04.857Z,8.41
2023-05-20T04:13:31.413Z,8.40
2023-05-20T04:15:57.902Z,8.31
2023-05-20T04:18:24.453Z,8.31
2023-05-20T04:20:54.810Z,8.34
2023-05-20T04:23:21.316Z,8.40
2023-05-20T04:25:48.754Z,8.43
2023-05-20T04:28:16.359Z,8.51
2023-05-20T04:30:45.066Z,8.52
2023-05-20T04:33:11.978Z,8.60
2023-05-20T04:35:41.479Z,8.64
2023-05-20T04:38:08.582Z,8.68
2023-05-20T04:40:35.124Z,8.76
2023-05-20T04:43:01.890Z,8.82
2023-05-20T04:45:28.395Z,8.91
2023-05-20T04:47:54.933Z,8.93
2023-05-20T04:50:21.920Z,9.00
2023-05-20T04:52:49.444Z,9.15
2023-05-20T04:55:16.059Z,9.29
2023-05-20T04:57:42.866Z,9.41
2023-05-20T05:00:13.203Z,9.51
2023-05-20T05:02:39.970Z,9.58
2023-05-20T05:05:07.221Z,9.67
2023-05-20T05:07:33.844Z,9.71
2023-05-20T05:10:00.547Z,9.78
2023-05-20T05:12:27.026Z,9.85
2023-05-20T05:14:53.557Z,9.95
2023-05-20T05:17:20.060Z,9.99
2023-05-20T05:19:46.562Z,10.04
2023-05-20T05:22:13.079Z,10.08
2023-05-20T05:24:39.641Z,10.11
2023-05-20T05:27:06.175Z,10.16
2023-05-20T05:29:32.716Z,10.21
2023-05-20T05:31:59.264Z,10.29
2023-05-20T05:34:25.835Z,10.38
2023-05-20T05:36:52.478Z,10.47
2023-05-20T05:39:19.002Z,10.54
2023-05-20T05:41:45.687Z,10.59
2023-05-20T05:44:12.233Z,10.65
2023-05-20T05:46:38.815Z,10.69
2023-05-20T05:49:05.415Z,10.71
2023-05-20T05:51:31.959Z,10.70
2023-05-20T05:53:58.503Z,10.75
2023-05-20T05:56:25.065Z,10.84
2023-05-20T05:58:51.832Z,10.93
2023-05-20T06:01:18.365Z,11.00
2023-05-20T06:03:45.144Z,11.09
2023-05-20T06:06:11.727Z,11.18
2023-05-20T06:08:38.380Z,11.27
2023-05-20T06:11:04.892Z,11.35
2023-05-20T06:13:31.388Z,11.39
2023-05-20T06:15:57.914Z,11.43
2023-05-20T06:18:24.452Z,11.48
2023-05-20T06:21:00.035Z,11.60
2023-05-20T06:23:26.690Z,11.69
2023-05-20T06:25:53.242Z,11.84
2023-05-20T06:28:20.602Z,11.91
2023-05-20T06:30:47.141Z,11.95
2023-05-20T06:33:14.081Z,12.01
2023-05-20T06:35:40.698Z,12.04
2023-05-20T06:38:07.283Z,12.13
2023-05-20T06:40:33.797Z,12.26
2023-05-20T06:43:00.303Z,12.36
2023-05-20T06:45:26.825Z,12.41
2023-05-20T06:47:54.362Z,12.46
2023-05-20T06:50:20.978Z,12.62
2023-05-20T06:52:47.478Z,12.82
2023-05-20T06:55:14.069Z,12.93
2023-05-20T06:57:40.669Z,12.98
2023-05-20T07:00:10.224Z,13.15
2023-05-20T07:02:36.803Z,13.28
2023-05-20T07:05:03.416Z,13.41
2023-05-20T07:07:29.914Z,13.52
2023-05-20T07:09:57.044Z,13.73
2023-05-20T07:12:23.590Z,13.86
2023-05-20T07:14:50.142Z,14.04
2023-05-20T07:17:16.680Z,14.08
2023-05-20T07:19:43.267Z,14.18
2023-05-20T07:22:09.768Z,14.26
2023-05-20T07:24:36.646Z,14.26
2023-05-20T07:27:03.154Z,14.37
2023-05-20T07:29:29.655Z,14.36
2023-05-20T07:31:56.220Z,14.33
2023-05-20T07:34:22.822Z,14.43
2023-05-20T07:36:49.772Z,14.51
2023-05-20T07:39:16.328Z,14.53
2023-05-20T07:41:42.897Z,14.53
2023-05-20T07:44:11.272Z,14.58
2023-05-20T07:46:38.281Z,14.62
2023-05-20T07:49:05.340Z,14.74
2023-05-20T07:51:31.980Z,14.81
2023-05-20T07:53:58.474Z,14.79
2023-05-20T07:56:25.140Z,14.90
2023-05-20T07:58:58.582Z,15.06
2023-05-20T08:01:27.966Z,15.25
2023-05-20T08:03:54.592Z,15.38
2023-05-20T08:06:21.273Z,15.42
2023-05-20T08:08:47.794Z,15.38
2023-05-20T08:11:14.325Z,15.45
2023-05-20T08:13:41.063Z,15.48
2023-05-20T08:16:07.674Z,15.47
2023-05-20T08:18:37.931Z,15.50
2023-05-20T08:21:05.476Z,15.55
2023-05-20T08:23:34.449Z,15.57
2023-05-20T08:26:03.620Z,15.56
2023-05-20T08:28:30.786Z,15.67
2023-05-20T08:30:58.160Z,15.84
2023-05-20T08:33:24.697Z,15.95
2023-05-20T08:35:51.204Z,16.04
2023-05-20T08:38:17.722Z,16.13
2023-05-20T08:40:44.247Z,16.31
2023-05-20T08:43:10.791Z,16.44
2023-05-20T08:45:38.243Z,16.55
2023-05-20T08:48:05.389Z,16.81
2023-05-20T08:50:31.945Z,17.04
2023-05-20T08:52:58.949Z,17.22
2023-05-20T08:55:34.750Z,17.19
2023-05-20T08:58:02.824Z,16.88
2023-05-20T09:00:29.401Z,16.44
2023-05-20T09:02:57.024Z,16.07
2023-05-20T09:05:24.586Z,16.20
2023-05-20T09:07:51.264Z,16.73
2023-05-20T09:10:17.820Z,16.95
2023-05-20T09:12:44.382Z,16.78
2023-05-20T09:15:11.426Z,16.30
2023-05-20T09:17:38.657Z,15.91
2023-05-20T09:20:09.851Z,15.59
2023-05-20T09:22:36.389Z,15.36
2023-05-20T09:25:02.944Z,15.19
2023-05-20T09:27:29.498Z,15.49
2023-05-20T09:29:56.033Z,15.84
2023-05-20T09:32:28.204Z,15.92
2023-05-20T09:34:54.753Z,15.96
2023-05-20T09:37:21.635Z,16.14
2023-05-20T09:40:00.518Z,16.00
2023-05-20T09:42:29.638Z,15.94
2023-05-20T09:44:59.029Z,15.93
2023-05-20T09:47:25.578Z,16.20
2023-05-20T09:49:52.679Z,16.39
2023-05-20T09:52:21.312Z,16.73
2023-05-20T09:54:48.452Z,17.03
2023-05-20T09:57:14.980Z,17.27
2023-05-20T09:59:42.165Z,17.40
2023-05-20T10:02:08.758Z,17.53
2023-05-20T10:04:35.941Z,17.50
2023-05-20T10:07:11.978Z,17.58
2023-05-20T10:09:59.951Z,17.69
2023-05-20T10:12:38.639Z,17.86
2023-05-20T10:15:22.530Z,17.88
2023-05-20T10:18:02.654Z,17.87
2023-05-20T10:20:29.178Z,18.01
2023-05-20T10:22:57.390Z,18.24
2023-05-20T10:25:27.923Z,18.57
2023-05-20T10:28:08.296Z,18.83
2023-05-20T10:30:35.797Z,18.87
2023-05-20T10:33:06.766Z,18.94
2023-05-20T10:35:33.563Z,19.29
2023-05-20T10:38:11.216Z,19.88
2023-05-20T10:40:37.962Z,20.69
2023-05-20T10:43:11.593Z,21.17
2023-05-20T10:45:51.288Z,21.47
2023-05-20T10:48:24.748Z,21.59
2023-05-20T10:50:53.011Z,21.61
2023-05-20T10:53:32.876Z,21.93
2023-05-20T10:56:00.361Z,22.42
2023-05-20T10:58:27.042Z,23.66
2023-05-20T11:00:54.598Z,24.05
2023-05-20T11:03:24.347Z,24.88
2023-05-20T11:05:51.135Z,25.89
2023-05-20T11:08:28.613Z,26.40
2023-05-20T11:10:59.107Z,25.97
2023-05-20T11:13:26.263Z,25.00
2023-05-20T11:15:53.008Z,24.07
2023-05-20T11:18:19.548Z,23.18
2023-05-20T11:20:49.234Z,22.24
2023-05-20T11:23:16.054Z,21.46
2023-05-20T11:25:42.610Z,20.83
2023-05-20T11:28:19.698Z,20.29
2023-05-20T11:30:46.390Z,19.95
2023-05-20T11:33:13.346Z,19.79
2023-05-20T11:35:48.165Z,19.69
2023-05-20T11:38:14.828Z,19.87
2023-05-20T11:40:50.993Z,20.12
2023-05-20T11:43:18.192Z,20.61
2023-05-20T11:45:47.330Z,20.92
2023-05-20T11:48:17.486Z,20.90
2023-05-20T11:50:45.124Z,20.77
2023-05-20T11:53:16.264Z,20.65
2023-05-20T11:55:56.214Z,20.64
2023-05-20T11:58:23.731Z,20.58
2023-05-20T12:00:55.143Z,20.29
2023-05-20T12:03:26.110Z,20.14
2023-05-20T12:05:52.859Z,19.92
2023-05-20T12:08:19.355Z,19.71
2023-05-20T12:10:45.923Z,19.47
2023-05-20T12:13:13.519Z,19.21
2023-05-20T12:15:40.275Z,19.08
2023-05-20T12:18:06.929Z,18.92
2023-05-20T12:20:34.596Z,18.83
2023-05-20T12:23:01.387Z,18.73
2023-05-20T12:25:27.963Z,18.64
2023-05-20T12:27:55.216Z,18.56
2023-05-20T12:30:22.606Z,18.52
2023-05-20T12:32:50.890Z,18.57
2023-05-20T12:35:17.746Z,18.64
2023-05-20T12:37:44.282Z,18.59
2023-05-20T12:40:12.019Z,18.63
2023-05-20T12:42:39.222Z,18.77
2023-05-20T12:45:06.300Z,18.81
2023-05-20T12:47:32.925Z,18.65
2023-05-20T12:49:59.879Z,18.44
2023-05-20T12:52:26.590Z,18.30
2023-05-20T12:54:56.494Z,18.15
2023-05-20T12:57:25.986Z,17.94
2023-05-20T12:59:52.677Z,17.77
2023-05-20T13:02:19.248Z,17.72
2023-05-20T13:04:45.795Z,17.72
2023-05-20T13:07:12.320Z,17.69
2023-05-20T13:09:38.862Z,17.60
2023-05-20T13:12:05.623Z,17.49
2023-05-20T13:14:32.189Z,17.52
2023-05-20T13:16:58.758Z,17.52
2023-05-20T13:19:26.108Z,17.51
2023-05-20T13:21:54.596Z,17.56
2023-05-20T13:24:21.538Z,17.62
2023-05-20T13:26:48.104Z,17.65
2023-05-20T13:29:14.609Z,17.68
2023-05-20T13:31:41.129Z,17.61
2023-05-20T13:34:07.740Z,17.44
2023-05-20T13:36:34.348Z,17.37
2023-05-20T13:39:00.944Z,17.37
2023-05-20T13:41:27.637Z,17.32
2023-05-20T13:43:54.162Z,17.38
2023-05-20T13:46:20.744Z,17.45
2023-05-20T13:48:47.252Z,17.47
2023-05-20T13:51:13.989Z,17.43
2023-05-20T13:53:40.643Z,17.46
2023-05-20T13:56:09.278Z,17.32
2023-05-20T13:58:38.741Z,17.17
2023-05-20T14:01:05.498Z,17.01
2023-05-20T14:03:33.246Z,16.87
2023-05-20T14:06:00.628Z,16.72
2023-05-20T14:08:27.434Z,16.58
2023-05-20T14:10:55.454Z,16.41
2023-05-20T14:13:22.561Z,16.23
2023-05-20T14:15:50.713Z,16.10
2023-05-20T14:18:17.950Z,16.02
2023-05-20T14:20:45.481Z,15.96
2023-05-20T14:23:12.152Z,15.93
2023-05-20T14:25:38.896Z,15.89
2023-05-20T14:28:05.705Z,15.87
2023-05-20T14:30:32.368Z,15.82
2023-05-20T14:32:59.027Z,15.84
2023-05-20T14:35:25.548Z,15.92
2023-05-20T14:37:52.492Z,15.97
2023-05-20T14:40:19.226Z,15.96
2023-05-20T14:42:45.942Z,15.92
2023-05-20T14:45:12.430Z,15.93
2023-05-20T14:47:40.213Z,15.93
2023-05-20T14:50:07.419Z,15.87
2023-05-20T14:52:34.008Z,15.79
2023-05-20T14:55:00.651Z,15.64
2023-05-20T14:57:27.378Z,15.59
2023-05-20T14:59:53.891Z,15.56
2023-05-20T15:02:20.524Z,15.53
2023-05-20T15:04:47.901Z,15.50
2023-05-20T15:07:15.123Z,15.47
2023-05-20T15:09:42.023Z,15.49
2023-05-20T15:12:09.554Z,15.53
2023-05-20T15:14:36.052Z,15.51
2023-05-20T15:17:03.564Z,15.47
2023-05-20T15:19:31.777Z,15.42
2023-05-20T15:21:58.791Z,15.40
2023-05-20T15:24:25.393Z,15.34
2023-05-20T15:26:52.772Z,15.29
2023-05-20T15:29:19.508Z,15.25
2023-05-20T15:31:46.521Z,15.19
2023-05-20T15:34:13.109Z,15.18
2023-05-20T15:36:39.677Z,15.14
2023-05-20T15:39:06.304Z,15.10
2023-05-20T15:41:32.891Z,15.11
2023-05-20T15:43:59.395Z,15.06
2023-05-20T15:46:26.203Z,15.01
2023-05-20T15:48:56.051Z,15.01
2023-05-20T15:51:23.178Z,14.94
2023-05-20T15:53:49.762Z,14.86
2023-05-20T15:56:16.650Z,14.82
2023-05-20T15:58:44.371Z,14.79
2023-05-20T16:01:11.127Z,14.83
2023-05-20T16:03:37.837Z,14.86
2023-05-20T16:06:04.644Z,14.87
2023-05-20T16:08:31.370Z,14.93
2023-05-20T16:10:57.931Z,14.94
2023-05-20T16:13:24.485Z,14.88
2023-05-20T16:15:51.443Z,14.78
2023-05-20T16:18:18.727Z,14.73
2023-05-20T16:20:45.464Z,14.72
2023-05-20T16:23:12.219Z,14.73
2023-05-20T16:25:38.734Z,14.70
2023-05-20T16:28:05.614Z,14.67
2023-05-20T16:30:32.185Z,14.62
2023-05-20T16:32:58.809Z,14.59
2023-05-20T16:35:25.350Z,14.55
2023-05-20T16:37:51.877Z,14.51
2023-05-20T16:40:18.381Z,14.50
2023-05-20T16:42:45.402Z,14.47
2023-05-20T16:45:12.053Z,14.49
2023-05-20T16:47:38.616Z,14.50
2023-05-20T16:50:05.509Z,14.47
2023-05-20T16:52:33.649Z,14.48
2023-05-20T16:55:03.571Z,14.47
2023-05-20T16:57:30.622Z,14.48
2023-05-20T16:59:58.234Z,14.42
2023-05-20T17:02:24.803Z,14.41
2023-05-20T17:04:51.760Z,14.34
2023-05-20T17:07:18.337Z,14.31
2023-05-20T17:09:44.838Z,14.31
2023-05-20T17:12:11.369Z,14.27
2023-05-20T17:14:37.933Z,14.21
2023-05-20T17:17:04.677Z,14.28
2023-05-20T17:19:31.547Z,14.29
2023-05-20T17:21:58.174Z,14.28
2023-05-20T17:24:24.696Z,14.25
2023-05-20T17:26:51.210Z,14.21
2023-05-20T17:29:17.779Z,14.19
2023-05-20T17:31:44.535Z,14.17
2023-05-20T17:34:11.379Z,14.15
2023-05-20T17:36:37.962Z,14.17
2023-05-20T17:39:04.640Z,14.13
2023-05-20T17:41:31.225Z,14.05
2023-05-20T17:43:57.780Z,13.99
2023-05-20T17:46:24.308Z,13.97
2023-05-20T17:48:50.877Z,13.93
2023-05-20T17:51:17.464Z,13.93
2023-05-20T17:53:43.980Z,13.90
2023-05-20T17:56:10.599Z,13.87
2023-05-20T17:58:37.311Z,13.79
2023-05-20T18:01:03.855Z,13.77
2023-05-20T18:03:30.578Z,13.76
2023-05-20T18:05:57.147Z,13.73
2023-05-20T18:08:25.283Z,13.69
2023-05-20T18:10:52.284Z,13.64
2023-05-20T18:13:18.840Z,13.54
2023-05-20T18:15:45.564Z,13.45
2023-05-20T18:18:12.326Z,13.38
2023-05-20T18:20:38.840Z,13.31
2023-05-20T18:23:05.356Z,13.20
2023-05-20T18:25:31.938Z,13.13
2023-05-20T18:27:58.430Z,13.04
2023-05-20T18:30:25.060Z,12.93
2023-05-20T18:32:51.749Z,12.83
2023-05-20T18:35:18.286Z,12.74
2023-05-20T18:37:44.857Z,12.61
2023-05-20T18:40:11.884Z,12.54
2023-05-20T18:46:19.078Z,12.34
2023-05-20T18:48:45.675Z,12.26
2023-05-20T18:51:12.175Z,12.16
2023-05-20T18:53:38.690Z,12.07
2023-05-20T18:56:05.712Z,12.01
2023-05-20T18:58:32.226Z,11.85
2023-05-20T19:00:58.833Z,11.77
2023-05-20T19:03:26.328Z,11.69
2023-05-20T19:05:52.916Z,11.61
2023-05-20T19:08:19.487Z,11.52
2023-05-20T19:10:46.014Z,11.43
2023-05-20T19:13:12.811Z,11.38
2023-05-20T19:15:39.343Z,11.31
2023-05-20T19:18:06.105Z,11.26
2023-05-20T19:20:34.324Z,11.19
2023-05-20T19:23:00.979Z,11.16
2023-05-20T19:25:27.897Z,11.11
2023-05-20T19:27:54.751Z,11.10
2023-05-20T19:30:21.304Z,11.10
2023-05-20T19:32:47.862Z,11.07
2023-05-20T19:35:14.573Z,11.03
2023-05-20T19:37:41.097Z,11.01
2023-05-20T19:40:08.264Z,11.02
2023-05-20T19:42:35.039Z,11.02
2023-05-20T19:45:01.558Z,11.01
2023-05-20T19:47:28.134Z,11.01
2023-05-20T19:49:54.672Z,11.02
2023-05-20T19:52:21.225Z,11.00
2023-05-20T19:54:47.768Z,10.99
2023-05-20T19:57:14.283Z,10.98
2023-05-20T19:59:40.893Z,10.91
2023-05-20T20:02:07.431Z,10.87
2023-05-20T20:04:34.015Z,10.83
2023-05-20T20:07:00.875Z,10.81
2023-05-20T20:09:27.549Z,10.78
2023-05-20T20:11:54.297Z,10.74
2023-05-20T20:14:21.214Z,10.73
2023-05-20T20:16:49.152Z,10.70
2023-05-20T20:19:22.934Z,10.67
2023-05-20T20:21:52.181Z,10.64
2023-05-20T20:24:19.272Z,10.58
2023-05-20T20:26:47.419Z,10.56
2023-05-20T20:29:14.532Z,10.57
2023-05-20T20:31:41.107Z,10.56
2023-05-20T20:34:07.671Z,10.56
2023-05-20T20:36:34.763Z,10.51
2023-05-20T20:39:05.025Z,10.48
2023-05-20T20:41:32.205Z,10.43
2023-05-20T20:43:59.320Z,10.40
2023-05-20T20:46:27.562Z,10.42
2023-05-20T20:48:54.367Z,10.43
2023-05-20T20:51:21.152Z,10.38
2023-05-20T20:53:48.670Z,10.30
2023-05-20T20:56:15.222Z,10.24
2023-05-20T20:58:41.778Z,10.18
2023-05-20T21:01:09.922Z,10.16
2023-05-20T21:03:40.174Z,10.14
2023-05-20T21:06:07.673Z,10.15
2023-05-20T21:08:34.226Z,10.14
2023-05-20T21:11:00.753Z,10.15
2023-05-20T21:13:27.689Z,10.14
2023-05-20T21:15:54.328Z,10.14
2023-05-20T21:18:22.502Z,10.13
2023-05-20T21:20:49.659Z,10.13
2023-05-20T21:23:16.633Z,10.12
2023-05-20T21:25:43.135Z,10.11
2023-05-20T21:28:09.719Z,10.12
2023-05-20T21:30:36.284Z,10.12
2023-05-20T21:33:03.768Z,10.11
2023-05-20T21:35:30.333Z,10.11
2023-05-20T21:37:56.840Z,10.10
2023-05-20T21:40:23.420Z,10.07
2023-05-20T21:42:49.953Z,10.04
2023-05-20T21:45:17.510Z,10.01
2023-05-20T21:47:46.108Z,10.00
2023-05-20T21:50:12.873Z,9.98
2023-05-20T21:52:39.923Z,9.96
2023-05-20T21:55:09.044Z,9.96
2023-05-20T21:57:35.824Z,9.96
2023-05-20T22:00:03.030Z,9.95
2023-05-20T22:02:29.629Z,9.94
2023-05-20T22:04:57.657Z,9.92
2023-05-20T22:07:24.210Z,9.88
2023-05-20T22:09:50.720Z,9.86
2023-05-20T22:12:17.219Z,9.86
2023-05-20T22:14:43.750Z,9.82
2023-05-20T22:17:10.552Z,9.82
2023-05-20T22:19:37.076Z,9.81
2023-05-20T22:22:03.746Z,9.82
2023-05-20T22:24:30.554Z,9.81
2023-05-20T22:26:57.049Z,9.79
2023-05-20T22:29:23.613Z,9.77
2023-05-20T22:31:50.196Z,9.77
2023-05-20T22:34:16.778Z,9.79
2023-05-20T22:36:43.311Z,9.80
2023-05-20T22:39:10.033Z,9.79
2023-05-20T22:41:36.536Z,9.79
2023-05-20T22:44:03.079Z,9.78
2023-05-20T22:46:29.676Z,9.76
2023-05-20T22:48:58.291Z,9.75
2023-05-20T22:51:24.868Z,9.75
2023-05-20T22:53:51.455Z,9.74
2023-05-20T22:56:18.102Z,9.73
2023-05-20T22:58:45.567Z,9.73
2023-05-20T23:01:12.322Z,9.72
2023-05-20T23:03:39.839Z,9.70
2023-05-20T23:06:06.579Z,9.68
2023-05-20T23:08:33.091Z,9.66
2023-05-20T23:10:59.591Z,9.66
2023-05-20T23:13:26.493Z,9.65
2023-05-20T23:15:53.238Z,9.63
2023-05-20T23:18:19.746Z,9.62
2023-05-20T23:20:47.624Z,9.63
2023-05-20T23:23:14.263Z,9.62
2023-05-20T23:25:42.382Z,9.64
2023-05-20T23:28:10.179Z,9.61
2023-05-20T23:30:36.671Z,9.61
2023-05-20T23:33:04.015Z,9.62
2023-05-20T23:35:30.734Z,9.63
2023-05-20T23:37:57.402Z,9.63
2023-05-20T23:40:23.925Z,9.63
2023-05-20T23:42:50.475Z,9.63
2023-05-20T23:45:17.070Z,9.63
2023-05-20T23:47:43.634Z,9.63
2023-05-20T23:50:10.825Z,9.64
2023-05-20T23:52:37.342Z,9.66
2023-05-20T23:55:04.147Z,9.67
2023-05-20T23:57:30.684Z,9.69
2023-05-20T23:59:57.169Z,9.68
